Terminal Aerodrome Forecast
Issued by NWS

Home | Current Version | Previous Version | Graphics & Text | Print | Product List | Glossary On
Versions: 1 2 3 4 5 6 7 8 9 10 11 12 13 14
013
FTUS43 KICT 251727
TAFCNU
TAF
KCNU 251727Z 2518/2618 18016G27KT P6SM SCT035 SCT150
     FM252300 18012G24KT P6SM VCTS BKN080CB
      TEMPO 2600/2603 4SM TS OVC025CB
     FM260300 26011KT 5SM SHRA VCTS OVC035CB
     FM260600 33012KT P6SM -SHRA OVC030
     FM260800 33013KT P6SM -SHRA OVC015
     FM261400 34015G23KT P6SM VCSH OVC010
     FM261700 33014G23KT P6SM OVC020=

USA.gov is the U.S. government's official web portal to all federal, state and local government web resources and services.